Time;durP1;ratioP1;P1;durP2;ratioP2;P2;SDS_P1;SDS_P2;PMS_P1;PMS_P2;Temp;Humidity;BMP_temperature;BMP_pressure;BME280_temperature;BME280_humidity;BME280_pressure;Samples;Min_cycle;Max_cycle;Signal;HPM_P1;HPM_P2
2022/03/16 00:00:18;;;;;;;0.30;0.20;;;8.30;99.90;;;;;;5066477;28;20472;-85
2022/03/16 00:02:47;;;;;;;1.27;1.17;;;8.40;99.90;;;;;;5054939;28;20517;-85
2022/03/16 00:05:14;;;;;;;0.30;0.20;;;8.30;99.90;;;;;;5068902;28;20455;-88
2022/03/16 00:07:42;;;;;;;0.30;0.10;;;8.30;99.90;;;;;;5064766;28;20464;-87
2022/03/16 00:10:11;;;;;;;2.20;2.10;;;8.40;99.90;;;;;;5061065;28;20564;-85
2022/03/16 00:12:39;;;;;;;0.30;0.20;;;8.30;99.90;;;;;;5060168;28;20523;-86
2022/03/16 00:15:07;;;;;;;0.30;0.10;;;8.30;99.90;;;;;;5073429;28;20535;-85
2022/03/16 00:17:35;;;;;;;0.30;0.10;;;8.30;99.90;;;;;;5053881;28;20552;-86
2022/03/16 00:20:04;;;;;;;0.97;0.57;;;8.30;99.90;;;;;;5059353;28;21248;-88
2022/03/16 00:22:31;;;;;;;0.30;0.10;;;8.30;99.90;;;;;;5071757;28;20455;-85
2022/03/16 00:24:58;;;;;;;0.30;0.20;;;8.30;99.90;;;;;;5067030;28;20536;-85
2022/03/16 00:27:25;;;;;;;0.30;0.20;;;8.30;99.90;;;;;;5057958;28;20508;-88
2022/03/16 00:29:52;;;;;;;0.93;0.83;;;8.30;99.90;;;;;;5083286;28;20578;-87
2022/03/16 00:32:19;;;;;;;0.30;0.17;;;8.30;99.90;;;;;;5065784;28;20472;-84
2022/03/16 00:34:46;;;;;;;2.57;0.53;;;8.30;99.90;;;;;;5055963;28;20482;-85
2022/03/16 00:37:14;;;;;;;0.30;0.10;;;8.40;99.90;;;;;;5062557;28;20960;-86
2022/03/16 00:39:41;;;;;;;0.40;0.40;;;8.30;99.90;;;;;;5066066;28;20993;-85
2022/03/16 00:42:09;;;;;;;0.30;0.20;;;8.30;99.90;;;;;;5075230;28;20445;-87
2022/03/16 00:44:35;;;;;;;0.30;0.10;;;8.30;99.90;;;;;;5064941;28;20831;-85
2022/03/16 00:47:03;;;;;;;0.30;0.10;;;8.30;99.90;;;;;;5059792;28;20472;-85
2022/03/16 00:49:30;;;;;;;0.30;0.10;;;8.30;99.90;;;;;;5065917;28;20464;-89
2022/03/16 00:51:58;;;;;;;0.30;0.20;;;8.30;99.90;;;;;;5069098;28;20491;-85
2022/03/16 00:54:26;;;;;;;0.30;0.20;;;8.30;99.90;;;;;;5053657;28;20527;-88
2022/03/16 00:56:53;;;;;;;0.30;0.10;;;8.30;99.90;;;;;;5056852;28;20970;-85
2022/03/16 00:59:20;;;;;;;0.40;0.27;;;8.30;99.90;;;;;;5068920;28;20485;-85
2022/03/16 01:01:47;;;;;;;0.50;0.50;;;8.30;99.90;;;;;;5073344;28;20451;-85
2022/03/16 01:04:14;;;;;;;0.30;0.10;;;8.40;99.90;;;;;;5067938;28;20493;-86
2022/03/16 01:06:41;;;;;;;0.40;0.30;;;8.40;99.90;;;;;;5064804;28;20454;-86
2022/03/16 01:09:08;;;;;;;0.30;0.10;;;8.30;99.90;;;;;;5062225;28;20467;-85
2022/03/16 01:11:37;;;;;;;0.30;0.20;;;8.40;99.90;;;;;;5055393;28;20491;-86
2022/03/16 01:14:05;;;;;;;0.40;0.20;;;8.40;99.90;;;;;;5072859;28;20537;-86
2022/03/16 01:16:35;;;;;;;0.63;0.33;;;8.40;99.90;;;;;;5072278;28;20455;-87
2022/03/16 01:19:02;;;;;;;0.30;0.10;;;8.30;99.90;;;;;;5067623;28;20498;-85
2022/03/16 01:21:29;;;;;;;0.30;0.10;;;8.40;99.90;;;;;;5065469;28;20520;-85
2022/03/16 01:23:56;;;;;;;0.30;0.20;;;8.30;99.90;;;;;;5052626;28;20464;-87
2022/03/16 01:26:23;;;;;;;0.30;0.13;;;8.40;99.90;;;;;;5061874;28;20451;-87
2022/03/16 01:28:51;;;;;;;1.23;0.37;;;8.40;99.90;;;;;;5063908;28;20524;-86
2022/03/16 01:31:20;;;;;;;0.57;0.57;;;8.40;99.90;;;;;;5065118;28;20543;-84
2022/03/16 01:33:47;;;;;;;0.50;0.40;;;8.40;99.90;;;;;;5056949;28;20550;-86
2022/03/16 01:36:15;;;;;;;0.30;0.20;;;8.30;99.90;;;;;;5073725;28;20467;-85
2022/03/16 01:38:41;;;;;;;0.40;0.40;;;8.30;99.90;;;;;;5057794;28;20849;-85
2022/03/16 01:41:09;;;;;;;1.77;1.77;;;8.30;99.90;;;;;;5066545;28;20874;-85
2022/03/16 01:43:36;;;;;;;0.30;0.20;;;8.30;99.90;;;;;;5080274;28;20869;-85
2022/03/16 01:46:05;;;;;;;0.73;0.73;;;8.30;99.90;;;;;;5067248;28;20460;-85
2022/03/16 01:48:32;;;;;;;1.50;0.30;;;8.30;99.90;;;;;;5072110;28;20450;-86
2022/03/16 01:50:59;;;;;;;0.50;0.50;;;8.30;99.90;;;;;;5057089;28;20561;-86
2022/03/16 01:53:26;;;;;;;0.30;0.20;;;8.30;99.90;;;;;;5052296;28;20453;-86
2022/03/16 01:55:53;;;;;;;0.40;0.30;;;8.30;99.90;;;;;;5059572;28;20460;-89
2022/03/16 01:58:21;;;;;;;0.37;0.27;;;8.20;99.90;;;;;;5059340;28;20960;-87
2022/03/16 02:00:48;;;;;;;0.77;0.30;;;8.20;99.90;;;;;;5069301;28;20459;-89
2022/03/16 02:03:17;;;;;;;0.30;0.20;;;8.20;99.90;;;;;;5055331;28;20461;-89
2022/03/16 02:05:44;;;;;;;0.30;0.10;;;8.20;99.90;;;;;;5061382;28;20451;-86
2022/03/16 02:08:12;;;;;;;0.30;0.20;;;8.10;99.90;;;;;;5065792;28;20471;-86
2022/03/16 02:10:40;;;;;;;0.30;0.30;;;8.20;99.90;;;;;;5051550;28;20543;-89
2022/03/16 02:13:09;;;;;;;0.40;0.20;;;8.20;99.90;;;;;;5063952;28;20537;-86
2022/03/16 02:15:37;;;;;;;0.57;0.50;;;8.20;99.90;;;;;;5052362;28;20534;-89
2022/03/16 02:18:04;;;;;;;0.30;0.20;;;8.20;99.90;;;;;;5051723;28;20542;-86
2022/03/16 02:20:32;;;;;;;0.30;0.20;;;8.20;99.90;;;;;;5051752;28;20464;-86
2022/03/16 02:23:03;;;;;;;0.30;0.20;;;8.20;99.90;;;;;;5051622;28;21005;-90
2022/03/16 02:25:32;;;;;;;0.30;0.20;;;8.20;99.90;;;;;;5061556;28;20796;-86
2022/03/16 02:28:00;;;;;;;0.50;0.50;;;8.20;99.90;;;;;;5057976;28;20516;-85
2022/03/16 02:30:28;;;;;;;0.30;0.20;;;8.20;99.90;;;;;;5053838;28;20505;-85
2022/03/16 02:32:56;;;;;;;1.00;0.90;;;8.20;99.90;;;;;;5064016;28;20471;-84
2022/03/16 02:35:23;;;;;;;0.30;0.10;;;8.10;99.90;;;;;;5074719;28;20483;-85
2022/03/16 02:37:50;;;;;;;0.40;0.30;;;8.10;99.90;;;;;;5055869;28;20470;-84
2022/03/16 02:40:21;;;;;;;0.60;0.60;;;8.20;99.90;;;;;;5065015;28;20462;-88
2022/03/16 02:42:48;;;;;;;0.40;0.27;;;8.20;99.90;;;;;;5060061;28;20449;-85
2022/03/16 02:45:16;;;;;;;0.30;0.20;;;8.20;99.90;;;;;;5053512;28;20543;-85
2022/03/16 02:47:43;;;;;;;0.30;0.10;;;8.10;99.90;;;;;;5067656;28;20457;-85
2022/03/16 02:50:12;;;;;;;0.40;0.30;;;8.10;99.90;;;;;;5048655;28;20457;-85
2022/03/16 02:52:39;;;;;;;0.40;0.30;;;8.00;99.90;;;;;;5059093;28;20495;-88
2022/03/16 02:55:07;;;;;;;0.47;0.30;;;8.00;99.90;;;;;;5065876;28;20454;-85
2022/03/16 02:57:36;;;;;;;0.30;0.20;;;7.90;99.90;;;;;;5051018;28;20446;-85
2022/03/16 03:00:04;;;;;;;0.63;0.50;;;7.80;99.90;;;;;;5059392;28;21028;-89
2022/03/16 03:02:31;;;;;;;0.43;0.43;;;7.70;99.90;;;;;;5050157;28;20468;-88
2022/03/16 03:04:58;;;;;;;0.40;0.30;;;7.60;99.90;;;;;;5060962;28;20485;-88
2022/03/16 03:07:25;;;;;;;0.30;0.20;;;7.50;99.90;;;;;;5050015;28;20525;-88
2022/03/16 03:09:52;;;;;;;0.30;0.10;;;7.50;99.90;;;;;;5063632;28;20489;-88
2022/03/16 03:12:19;;;;;;;1.50;1.47;;;7.40;99.90;;;;;;5054752;28;20519;-85
2022/03/16 03:14:48;;;;;;;0.30;0.20;;;7.40;99.90;;;;;;5065394;28;20477;-86
2022/03/16 03:17:14;;;;;;;0.40;0.30;;;7.40;99.90;;;;;;5064125;28;20557;-83
2022/03/16 03:19:43;;;;;;;0.70;0.70;;;7.40;99.90;;;;;;5060592;28;20475;-87
2022/03/16 03:22:10;;;;;;;2.33;0.40;;;7.40;99.90;;;;;;5048997;28;20466;-86
2022/03/16 03:24:39;;;;;;;0.30;0.30;;;7.30;99.90;;;;;;5048406;28;20535;-85
2022/03/16 03:27:06;;;;;;;0.43;0.43;;;7.30;99.90;;;;;;5054401;28;20462;-85
2022/03/16 03:29:33;;;;;;;0.50;0.40;;;7.30;99.90;;;;;;5065467;28;20459;-87
2022/03/16 03:32:01;;;;;;;0.53;0.40;;;7.20;99.90;;;;;;5050880;28;20992;-87
2022/03/16 03:34:28;;;;;;;0.30;0.20;;;7.20;99.90;;;;;;5062938;28;20482;-86
2022/03/16 03:36:55;;;;;;;0.30;0.10;;;7.10;99.90;;;;;;5050589;28;20461;-84
2022/03/16 03:39:22;;;;;;;0.37;0.17;;;7.10;99.90;;;;;;5051441;28;21005;-87
2022/03/16 03:41:49;;;;;;;1.07;0.97;;;7.00;99.90;;;;;;5052357;28;20493;-88
2022/03/16 03:44:16;;;;;;;0.30;0.10;;;6.90;99.90;;;;;;5063708;28;20453;-86
2022/03/16 03:46:43;;;;;;;0.30;0.20;;;6.90;99.90;;;;;;5054287;28;21150;-89
2022/03/16 03:49:11;;;;;;;3.00;1.03;;;6.80;99.90;;;;;;5056480;28;20450;-85
2022/03/16 03:51:38;;;;;;;0.30;0.10;;;6.80;99.90;;;;;;5065018;28;20516;-87
2022/03/16 03:54:05;;;;;;;0.97;0.83;;;6.70;99.90;;;;;;5050377;28;20514;-89
2022/03/16 03:56:32;;;;;;;0.30;0.20;;;6.80;99.90;;;;;;5069028;28;20451;-87
2022/03/16 03:58:59;;;;;;;0.30;0.20;;;6.80;99.90;;;;;;5054244;28;20464;-87
2022/03/16 04:01:26;;;;;;;0.53;0.27;;;6.80;99.90;;;;;;5048859;28;20529;-86
2022/03/16 04:03:53;;;;;;;0.30;0.30;;;6.80;99.90;;;;;;5066013;28;20461;-85
2022/03/16 04:06:21;;;;;;;0.57;0.57;;;6.80;99.90;;;;;;5067180;28;21027;-89
2022/03/16 04:08:48;;;;;;;0.30;0.20;;;6.80;99.90;;;;;;5049646;28;20871;-87
2022/03/16 04:11:15;;;;;;;0.30;0.20;;;6.70;99.90;;;;;;5055592;28;20538;-86
2022/03/16 04:13:42;;;;;;;0.40;0.20;;;6.80;99.90;;;;;;5065800;28;20871;-87
2022/03/16 04:16:09;;;;;;;0.30;0.20;;;6.80;99.90;;;;;;5089836;28;20459;-86
2022/03/16 04:18:36;;;;;;;0.40;0.20;;;6.70;99.90;;;;;;5076408;28;20529;-85
2022/03/16 04:21:03;;;;;;;0.77;0.50;;;6.60;99.90;;;;;;5058926;28;20469;-86
2022/03/16 04:23:31;;;;;;;0.60;0.60;;;6.60;99.90;;;;;;5056020;28;20487;-85
2022/03/16 04:25:58;;;;;;;0.30;0.10;;;6.50;99.90;;;;;;5063109;28;20997;-86
2022/03/16 04:28:25;;;;;;;0.40;0.20;;;6.50;99.90;;;;;;5065467;28;20460;-85
2022/03/16 04:30:52;;;;;;;2.47;0.50;;;6.30;99.90;;;;;;5058002;28;20518;-88
2022/03/16 04:33:19;;;;;;;1.73;0.40;;;6.30;99.90;;;;;;5068828;28;20513;-85
2022/03/16 04:35:46;;;;;;;0.30;0.10;;;6.30;99.90;;;;;;5078870;28;20478;-83
2022/03/16 04:38:13;;;;;;;0.30;0.20;;;6.30;99.90;;;;;;5053975;28;20464;-86
2022/03/16 04:40:41;;;;;;;0.40;0.20;;;6.30;99.90;;;;;;5057534;28;20455;-85
2022/03/16 04:43:08;;;;;;;0.30;0.20;;;6.30;99.90;;;;;;5050456;28;20510;-87
2022/03/16 04:45:37;;;;;;;0.30;0.20;;;6.30;99.90;;;;;;5066836;28;20547;-85
2022/03/16 04:48:07;;;;;;;0.40;0.30;;;6.30;99.90;;;;;;5071577;28;20468;-87
2022/03/16 04:50:34;;;;;;;0.97;0.97;;;6.30;99.90;;;;;;5067128;28;20453;-88
2022/03/16 04:53:01;;;;;;;1.53;0.80;;;6.30;99.90;;;;;;5050552;28;20509;-86
2022/03/16 04:55:28;;;;;;;0.30;0.10;;;6.30;99.90;;;;;;5055618;28;20462;-86
2022/03/16 04:57:57;;;;;;;1.27;1.17;;;6.30;99.90;;;;;;5059334;28;20510;-88
2022/03/16 05:00:25;;;;;;;0.97;0.30;;;6.30;99.90;;;;;;5048366;28;20476;-87
2022/03/16 05:02:52;;;;;;;1.40;0.53;;;6.30;99.90;;;;;;5057725;28;20459;-87
2022/03/16 05:05:20;;;;;;;1.23;0.40;;;6.30;99.90;;;;;;5060043;28;20464;-89
2022/03/16 05:07:48;;;;;;;1.20;1.20;;;6.30;99.90;;;;;;5065564;28;20475;-84
2022/03/16 05:10:15;;;;;;;0.30;0.10;;;6.30;99.90;;;;;;5056486;28;20460;-85
2022/03/16 05:12:43;;;;;;;1.03;0.40;;;6.30;99.90;;;;;;5054663;28;20578;-85
2022/03/16 05:15:15;;;;;;;0.30;0.10;;;6.20;99.90;;;;;;5057844;28;20451;-84
2022/03/16 05:17:42;;;;;;;2.37;2.20;;;6.20;99.90;;;;;;5069420;28;20556;-85
2022/03/16 05:20:11;;;;;;;0.30;0.10;;;6.20;99.90;;;;;;5063027;28;20504;-85
2022/03/16 05:22:42;;;;;;;4.13;1.10;;;6.20;99.90;;;;;;5089766;28;20806;-85
2022/03/16 05:25:10;;;;;;;0.30;0.10;;;6.20;99.90;;;;;;5051839;28;20546;-85
2022/03/16 05:27:37;;;;;;;0.63;0.63;;;6.20;99.90;;;;;;5056832;28;20509;-85
2022/03/16 05:30:05;;;;;;;0.50;0.50;;;6.30;99.90;;;;;;5052173;28;20723;-85
2022/03/16 05:32:33;;;;;;;0.30;0.10;;;6.30;99.90;;;;;;5052584;28;20528;-89
2022/03/16 05:35:00;;;;;;;1.07;0.97;;;6.30;99.90;;;;;;5056671;28;21019;-86
2022/03/16 05:37:27;;;;;;;0.40;0.30;;;6.30;99.90;;;;;;5067049;28;20546;-85
2022/03/16 05:39:54;;;;;;;0.30;0.10;;;6.20;99.90;;;;;;5063256;28;20897;-85
2022/03/16 05:42:21;;;;;;;0.30;0.20;;;6.20;99.90;;;;;;5062887;28;20481;-85
2022/03/16 05:44:49;;;;;;;1.17;0.57;;;6.20;99.90;;;;;;5063234;28;20567;-86
2022/03/16 05:47:16;;;;;;;0.30;0.10;;;6.20;99.90;;;;;;5063766;28;20505;-84
2022/03/16 05:49:44;;;;;;;0.30;0.20;;;6.20;99.90;;;;;;5058796;28;20525;-88
2022/03/16 05:52:12;;;;;;;0.30;0.10;;;6.20;99.90;;;;;;5072222;28;20488;-94
2022/03/16 05:54:39;;;;;;;0.30;0.20;;;6.20;99.90;;;;;;5065384;28;20461;-88
2022/03/16 05:57:06;;;;;;;3.00;2.73;;;6.20;99.90;;;;;;5069507;28;21280;-88
2022/03/16 05:59:33;;;;;;;0.30;0.20;;;6.20;99.90;;;;;;5076780;28;20460;-89
2022/03/16 06:02:00;;;;;;;0.30;0.10;;;6.20;99.90;;;;;;5059347;28;20469;-91
2022/03/16 06:04:27;;;;;;;0.40;0.40;;;6.20;99.90;;;;;;5066080;28;20448;-87
2022/03/16 06:06:56;;;;;;;0.30;0.20;;;6.20;99.90;;;;;;5066895;28;20445;-88
2022/03/16 06:09:23;;;;;;;10.53;1.63;;;6.20;99.90;;;;;;5058307;28;21002;-87
2022/03/16 06:11:49;;;;;;;0.93;0.93;;;6.20;99.90;;;;;;5066584;28;20516;-87
2022/03/16 06:14:16;;;;;;;0.30;0.20;;;6.20;99.90;;;;;;5052905;28;20452;-87
2022/03/16 06:16:44;;;;;;;0.43;0.40;;;6.20;99.90;;;;;;5055487;28;20553;-88
2022/03/16 06:19:11;;;;;;;1.17;1.13;;;6.20;99.90;;;;;;5069934;28;20468;-88
2022/03/16 06:21:38;;;;;;;0.40;0.40;;;6.20;99.90;;;;;;5062186;28;20524;-87
2022/03/16 06:24:07;;;;;;;0.30;0.20;;;6.20;99.90;;;;;;5058614;28;20472;-88
2022/03/16 06:26:34;;;;;;;0.50;0.50;;;6.20;99.90;;;;;;5056172;28;20451;-88
2022/03/16 06:29:01;;;;;;;2.10;1.13;;;6.20;99.90;;;;;;5057589;28;20452;-87
2022/03/16 06:31:28;;;;;;;0.50;0.40;;;6.20;99.90;;;;;;5054469;28;20461;-86
2022/03/16 06:33:55;;;;;;;0.57;0.57;;;6.20;99.90;;;;;;5055919;28;20488;-87
2022/03/16 06:36:22;;;;;;;0.30;0.10;;;6.20;99.90;;;;;;5069381;28;20464;-86
2022/03/16 06:38:49;;;;;;;1.27;1.17;;;6.20;99.90;;;;;;5072374;28;20456;-88
2022/03/16 06:41:17;;;;;;;0.40;0.40;;;6.20;99.90;;;;;;5064612;28;20457;-87
2022/03/16 06:43:44;;;;;;;0.30;0.20;;;6.20;99.90;;;;;;5066781;28;20541;-87
2022/03/16 06:46:11;;;;;;;0.30;0.20;;;6.20;99.90;;;;;;5065480;28;20529;-87
2022/03/16 06:48:38;;;;;;;0.30;0.20;;;6.30;99.90;;;;;;5062900;28;20496;-86
2022/03/16 06:51:05;;;;;;;0.30;0.30;;;6.30;99.90;;;;;;5066687;28;20468;-87
2022/03/16 06:53:32;;;;;;;0.83;0.83;;;6.30;99.90;;;;;;5064589;28;20516;-87
2022/03/16 06:55:59;;;;;;;0.40;0.30;;;6.30;99.90;;;;;;5067992;28;20509;-89
2022/03/16 06:58:27;;;;;;;0.77;0.30;;;6.30;99.90;;;;;;5066041;28;20545;-87
2022/03/16 07:00:54;;;;;;;1.10;0.40;;;6.30;99.90;;;;;;5064243;28;20480;-87
2022/03/16 07:03:23;;;;;;;0.30;0.10;;;6.40;99.90;;;;;;5067930;28;20501;-87
2022/03/16 07:05:50;;;;;;;0.30;0.20;;;6.40;99.90;;;;;;5063108;28;20464;-87
2022/03/16 07:08:17;;;;;;;1.33;0.60;;;6.40;99.90;;;;;;5068594;28;20524;-88
2022/03/16 07:10:45;;;;;;;4.97;1.17;;;6.40;99.90;;;;;;5066351;28;20942;-87
2022/03/16 07:13:13;;;;;;;0.50;0.50;;;6.40;99.90;;;;;;5061570;28;20496;-87
2022/03/16 07:15:43;;;;;;;0.90;0.50;;;6.30;99.90;;;;;;5065704;28;21067;-87
2022/03/16 07:18:11;;;;;;;4.47;1.37;;;6.40;99.90;;;;;;5060397;28;21011;-87
2022/03/16 07:20:38;;;;;;;0.40;0.30;;;6.40;99.90;;;;;;5062829;28;20496;-88
2022/03/16 07:23:07;;;;;;;0.30;0.20;;;6.40;99.90;;;;;;5061408;28;20506;-87
2022/03/16 07:25:34;;;;;;;0.40;0.40;;;6.40;99.90;;;;;;5061822;28;20466;-89
2022/03/16 07:28:01;;;;;;;0.40;0.30;;;6.40;99.90;;;;;;5054950;28;20542;-86
2022/03/16 07:30:28;;;;;;;2.20;0.70;;;6.40;99.90;;;;;;5060920;28;21041;-86
2022/03/16 07:32:56;;;;;;;0.93;0.93;;;6.50;99.90;;;;;;5050308;28;20512;-87
2022/03/16 07:35:26;;;;;;;1.73;0.83;;;6.40;99.90;;;;;;5062958;28;20567;-86
2022/03/16 07:37:54;;;;;;;0.80;0.80;;;6.50;99.90;;;;;;5059584;28;20459;-85
2022/03/16 07:40:21;;;;;;;0.30;0.10;;;6.50;99.90;;;;;;5052929;28;20461;-85
2022/03/16 07:42:50;;;;;;;0.50;0.50;;;6.50;99.90;;;;;;5060372;28;20476;-86
2022/03/16 07:45:18;;;;;;;0.53;0.53;;;6.50;99.90;;;;;;5064906;28;20550;-85
2022/03/16 07:47:45;;;;;;;0.33;0.23;;;6.50;99.90;;;;;;5064254;28;20456;-86
2022/03/16 07:50:14;;;;;;;0.37;0.20;;;6.50;99.90;;;;;;5068290;28;20475;-84
2022/03/16 07:52:41;;;;;;;1.23;0.97;;;6.60;99.90;;;;;;5066770;28;20479;-85
2022/03/16 07:55:09;;;;;;;4.97;1.47;;;6.60;99.90;;;;;;5064598;28;20529;-85
2022/03/16 07:57:36;;;;;;;0.30;0.20;;;6.60;99.90;;;;;;5062832;28;21050;-85
2022/03/16 08:00:04;;;;;;;0.30;0.13;;;6.60;99.90;;;;;;5066312;28;20932;-88
2022/03/16 08:02:31;;;;;;;0.40;0.40;;;6.60;99.90;;;;;;5067967;28;20456;-83
2022/03/16 08:05:00;;;;;;;0.77;0.77;;;6.70;99.90;;;;;;5060427;28;20472;-84
2022/03/16 08:07:29;;;;;;;0.73;0.73;;;6.80;99.90;;;;;;5065559;28;20460;-84
2022/03/16 08:09:57;;;;;;;0.30;0.20;;;6.80;99.90;;;;;;5058339;28;20444;-87
2022/03/16 08:12:24;;;;;;;0.30;0.20;;;6.90;99.90;;;;;;5060712;28;20480;-87
2022/03/16 08:14:51;;;;;;;0.40;0.40;;;7.00;99.90;;;;;;5058734;28;20501;-84
2022/03/16 08:17:18;;;;;;;0.40;0.40;;;7.10;99.90;;;;;;5054197;28;20579;-90
2022/03/16 08:19:45;;;;;;;1.13;1.13;;;7.20;99.90;;;;;;5068761;28;20467;-85
2022/03/16 08:22:12;;;;;;;0.83;0.83;;;7.30;99.90;;;;;;5064560;28;20888;-86
2022/03/16 08:24:41;;;;;;;0.57;0.57;;;7.40;99.90;;;;;;5060565;28;20484;-82
2022/03/16 08:27:08;;;;;;;0.30;0.17;;;7.50;99.90;;;;;;5054117;28;20922;-87
2022/03/16 08:29:35;;;;;;;0.30;0.30;;;7.60;99.90;;;;;;5066677;28;21052;-88
2022/03/16 08:32:03;;;;;;;0.53;0.43;;;7.60;99.90;;;;;;5059129;28;20514;-88
2022/03/16 08:34:31;;;;;;;0.30;0.10;;;7.60;99.90;;;;;;5068284;28;20466;-89
2022/03/16 08:37:00;;;;;;;0.43;0.43;;;7.60;99.90;;;;;;5060427;28;20489;-87
2022/03/16 08:39:27;;;;;;;0.30;0.10;;;7.50;99.90;;;;;;5067934;28;20477;-86
2022/03/16 08:41:56;;;;;;;1.70;1.60;;;7.60;99.90;;;;;;5064236;28;20463;-89
2022/03/16 08:44:24;;;;;;;0.30;0.20;;;7.70;99.90;;;;;;5052785;28;20543;-89
2022/03/16 08:46:51;;;;;;;0.30;0.20;;;7.80;99.90;;;;;;5057818;28;20557;-91
2022/03/16 08:49:18;;;;;;;0.47;0.47;;;7.80;99.90;;;;;;5070658;28;20459;-89
2022/03/16 08:51:45;;;;;;;0.30;0.10;;;7.90;99.90;;;;;;5070673;28;21271;-88
2022/03/16 08:54:12;;;;;;;0.30;0.20;;;7.90;99.90;;;;;;5071321;28;21409;-90
2022/03/16 08:56:39;;;;;;;0.40;0.30;;;8.00;99.90;;;;;;5066594;28;20471;-89
2022/03/16 08:59:08;;;;;;;0.43;0.40;;;8.00;99.90;;;;;;5069156;28;20520;-89
2022/03/16 09:01:35;;;;;;;0.47;0.47;;;8.00;99.90;;;;;;5071807;28;20472;-84
2022/03/16 09:04:02;;;;;;;0.47;0.47;;;8.10;99.90;;;;;;5071372;28;20834;-87
2022/03/16 09:06:29;;;;;;;1.30;1.20;;;8.00;99.90;;;;;;5063614;28;20554;-87
2022/03/16 09:08:56;;;;;;;0.37;0.20;;;8.00;99.90;;;;;;5065610;28;20467;-87
2022/03/16 09:11:23;;;;;;;0.30;0.17;;;7.90;99.90;;;;;;5066792;28;20454;-87
2022/03/16 09:13:50;;;;;;;0.40;0.23;;;8.00;99.90;;;;;;5062079;28;20560;-86
2022/03/16 09:16:19;;;;;;;1.10;1.10;;;8.00;99.90;;;;;;5071012;28;20953;-86
2022/03/16 09:18:47;;;;;;;0.30;0.13;;;8.00;99.90;;;;;;5069435;28;20551;-87
2022/03/16 09:21:14;;;;;;;0.63;0.63;;;8.10;99.90;;;;;;5066091;28;20495;-86
2022/03/16 09:23:41;;;;;;;0.43;0.40;;;8.20;99.90;;;;;;5066536;28;20475;-87
2022/03/16 09:26:08;;;;;;;0.30;0.20;;;8.20;99.90;;;;;;5070872;28;20451;-87
2022/03/16 09:28:35;;;;;;;0.60;0.20;;;8.20;99.90;;;;;;5059934;28;20497;-87
2022/03/16 09:31:02;;;;;;;0.40;0.30;;;8.20;99.90;;;;;;5070178;28;20462;-87
2022/03/16 09:33:31;;;;;;;0.30;0.10;;;8.30;99.90;;;;;;5065945;28;20569;-86
2022/03/16 09:36:00;;;;;;;0.70;0.20;;;8.20;99.90;;;;;;5063902;28;20460;-87
2022/03/16 09:38:27;;;;;;;0.30;0.20;;;8.30;99.90;;;;;;5053838;28;20464;-87
2022/03/16 09:40:56;;;;;;;0.30;0.20;;;8.40;99.90;;;;;;5058298;28;20472;-88
2022/03/16 09:43:24;;;;;;;0.30;0.20;;;8.60;99.90;;;;;;5064728;28;20544;-86
2022/03/16 09:45:55;;;;;;;0.43;0.23;;;8.60;99.90;;;;;;5065349;28;20478;-88
2022/03/16 09:48:23;;;;;;;4.03;1.70;;;8.90;99.90;;;;;;5063850;28;20507;-87
2022/03/16 09:50:53;;;;;;;1.20;1.17;;;9.00;99.90;;;;;;5074967;28;20452;-87
2022/03/16 09:53:22;;;;;;;0.40;0.20;;;9.00;99.90;;;;;;5066733;28;20493;-88
2022/03/16 09:55:52;;;;;;;0.40;0.20;;;9.20;99.90;;;;;;5056382;28;20487;-87
2022/03/16 09:58:20;;;;;;;0.40;0.20;;;9.20;99.90;;;;;;5057351;28;20537;-86
2022/03/16 10:00:47;;;;;;;0.30;0.10;;;9.20;99.90;;;;;;5058893;28;20973;-86
2022/03/16 10:03:16;;;;;;;1.27;1.27;;;9.10;99.90;;;;;;5063368;28;20480;-87
2022/03/16 10:05:44;;;;;;;0.30;0.10;;;9.00;99.90;;;;;;5062734;28;20482;-86
2022/03/16 10:08:14;;;;;;;0.40;0.20;;;9.10;99.90;;;;;;5067192;28;20457;-86
2022/03/16 10:13:26;;;;;;;0.30;0.20;;;9.00;99.90;;;;;;5063066;28;21088;-87
2022/03/16 10:15:55;;;;;;;0.40;0.30;;;9.00;99.90;;;;;;5064626;28;20495;-87
2022/03/16 10:18:23;;;;;;;0.90;0.90;;;9.00;99.90;;;;;;5070241;28;20517;-86
2022/03/16 10:20:52;;;;;;;0.40;0.30;;;9.10;99.90;;;;;;5067469;28;20463;-86
2022/03/16 10:23:24;;;;;;;0.30;0.20;;;9.10;99.90;;;;;;5070533;28;20872;-85
2022/03/16 10:25:53;;;;;;;0.30;0.20;;;9.10;99.90;;;;;;5065733;28;20475;-86
2022/03/16 10:28:22;;;;;;;0.40;0.20;;;9.10;99.90;;;;;;5050332;28;20485;-86
2022/03/16 10:30:56;;;;;;;0.77;0.77;;;9.10;99.90;;;;;;5059206;28;20467;-86
2022/03/16 10:33:24;;;;;;;0.40;0.40;;;8.90;99.90;;;;;;5064728;28;20489;-85
2022/03/16 10:35:56;;;;;;;0.40;0.20;;;8.80;99.90;;;;;;5069438;28;20589;-85
2022/03/16 10:38:26;;;;;;;0.30;0.17;;;8.70;99.90;;;;;;5071002;28;20449;-85
2022/03/16 10:40:56;;;;;;;0.30;0.20;;;8.70;99.90;;;;;;5071376;28;20527;-86
2022/03/16 10:49:07;;;;;;;1.50;1.03;;;8.60;99.90;;;;;;5031004;28;21160;-86
2022/03/16 10:51:34;;;;;;;1.10;0.50;;;8.60;99.90;;;;;;5069921;28;20521;-85
2022/03/16 10:54:05;;;;;;;1.30;1.30;;;8.60;99.90;;;;;;5069100;28;20483;-86
2022/03/16 10:56:33;;;;;;;0.30;0.20;;;8.50;99.90;;;;;;5063117;28;20517;-88
2022/03/16 10:59:02;;;;;;;0.30;0.20;;;8.50;99.90;;;;;;5067716;28;20605;-89
2022/03/16 11:01:30;;;;;;;0.70;0.70;;;8.60;99.90;;;;;;5065662;28;20465;-88
2022/03/16 11:04:01;;;;;;;1.47;0.43;;;8.50;99.90;;;;;;5068550;28;20453;-85
2022/03/16 11:06:28;;;;;;;1.13;1.03;;;8.50;99.90;;;;;;5065753;28;20460;-87
2022/03/16 11:08:57;;;;;;;0.40;0.40;;;8.60;99.90;;;;;;5065297;28;20457;-85
2022/03/16 11:14:12;;;;;;;0.30;0.13;;;8.70;99.90;;;;;;5063583;28;20494;-85
2022/03/16 11:16:40;;;;;;;0.37;0.30;;;8.80;99.90;;;;;;5069133;28;20824;-86
2022/03/16 11:19:08;;;;;;;0.63;0.63;;;9.00;99.90;;;;;;5062424;28;20515;-86
2022/03/16 11:21:45;;;;;;;0.60;0.40;;;9.10;99.90;;;;;;5057484;28;20460;-86
2022/03/16 11:24:16;;;;;;;4.10;3.23;;;9.10;99.90;;;;;;5063595;28;20507;-86
2022/03/16 11:26:55;;;;;;;0.30;0.20;;;9.10;99.90;;;;;;5069959;28;20477;-85
2022/03/16 11:29:38;;;;;;;0.40;0.30;;;9.30;99.90;;;;;;5051554;28;20480;-87
2022/03/16 11:32:13;;;;;;;0.53;0.53;;;9.20;99.90;;;;;;5066046;28;20542;-87
2022/03/16 11:34:40;;;;;;;0.40;0.30;;;9.10;99.90;;;;;;5059104;28;20605;-86
2022/03/16 11:37:09;;;;;;;2.50;0.40;;;9.10;99.90;;;;;;5063005;28;21009;-87
2022/03/16 11:39:44;;;;;;;1.07;1.07;;;9.20;99.90;;;;;;5052069;28;20460;-86
2022/03/16 11:42:16;;;;;;;0.30;0.20;;;9.20;99.90;;;;;;5049646;28;20458;-86
2022/03/16 11:44:43;;;;;;;0.53;0.53;;;9.20;99.90;;;;;;5066979;28;20454;-87
2022/03/16 11:47:33;;;;;;;0.37;0.30;;;9.20;99.90;;;;;;5064593;28;20994;-88
2022/03/16 11:50:16;;;;;;;0.50;0.50;;;9.20;99.90;;;;;;5076475;28;20451;-85
2022/03/16 11:53:07;;;;;;;0.50;0.37;;;9.20;99.90;;;;;;5074391;28;20467;-87
2022/03/16 11:55:50;;;;;;;2.67;1.03;;;9.50;99.90;;;;;;5071465;28;20471;-87
2022/03/16 11:58:26;;;;;;;0.30;0.20;;;9.70;99.90;;;;;;5067086;28;20463;-85
2022/03/16 12:01:32;;;;;;;0.30;0.20;;;9.90;99.90;;;;;;5057766;28;20561;-85
2022/03/16 12:04:02;;;;;;;0.30;0.20;;;9.90;99.90;;;;;;5038680;28;21007;-86
2022/03/16 12:06:51;;;;;;;0.50;0.50;;;9.80;99.90;;;;;;5064995;28;20451;-88
2022/03/16 12:09:20;;;;;;;0.43;0.30;;;9.90;99.90;;;;;;5058507;28;20468;-86
2022/03/16 12:15:21;;;;;;;2.00;1.90;;;10.00;99.90;;;;;;5063163;28;20528;-84
2022/03/16 12:18:21;;;;;;;0.60;0.20;;;9.90;99.90;;;;;;5052496;28;20488;-83
2022/03/16 12:20:53;;;;;;;1.70;1.60;;;9.80;99.90;;;;;;5058989;28;21175;-88
2022/03/16 12:23:52;;;;;;;0.40;0.40;;;9.80;99.90;;;;;;5062513;28;20451;-86
2022/03/16 12:26:31;;;;;;;0.50;0.33;;;9.80;99.90;;;;;;5064268;28;21005;-84
2022/03/16 12:29:06;;;;;;;0.63;0.63;;;9.60;99.90;;;;;;5065730;28;20467;-84
2022/03/16 12:31:42;;;;;;;0.60;0.50;;;9.40;99.90;;;;;;5061185;28;20459;-84
2022/03/16 12:34:09;;;;;;;2.77;2.13;;;9.30;99.90;;;;;;5062601;28;20550;-84
2022/03/16 12:36:36;;;;;;;0.87;0.87;;;9.20;99.90;;;;;;5061594;28;20448;-84
2022/03/16 12:39:07;;;;;;;1.80;1.40;;;9.20;99.90;;;;;;5065819;28;20827;-84
2022/03/16 12:44:42;;;;;;;0.40;0.20;;;9.20;99.90;;;;;;5029258;28;20433;-85
2022/03/16 12:47:25;;;;;;;0.83;0.83;;;9.10;99.90;;;;;;5056265;28;21157;-88
2022/03/16 12:49:52;;;;;;;8.50;1.50;;;9.10;99.90;;;;;;5066020;28;20449;-86
2022/03/16 12:52:20;;;;;;;0.40;0.40;;;9.20;99.90;;;;;;5068010;28;20465;-85
2022/03/16 12:54:46;;;;;;;0.40;0.40;;;9.30;99.90;;;;;;5070692;28;20484;-84
2022/03/16 12:57:15;;;;;;;0.40;0.30;;;9.40;99.90;;;;;;5068126;28;20501;-84
2022/03/16 12:59:47;;;;;;;0.50;0.50;;;9.50;99.90;;;;;;5065476;28;20464;-84
2022/03/16 13:02:19;;;;;;;0.80;0.80;;;9.60;99.90;;;;;;5067383;28;20816;-84
2022/03/16 13:04:53;;;;;;;1.23;1.03;;;9.60;99.90;;;;;;5067867;28;20560;-84
2022/03/16 13:07:21;;;;;;;0.53;0.53;;;9.60;99.90;;;;;;5062138;28;20816;-85
2022/03/16 13:09:48;;;;;;;0.40;0.20;;;9.70;99.90;;;;;;5063679;28;20499;-84
2022/03/16 13:12:16;;;;;;;3.47;1.20;;;9.80;99.90;;;;;;5058484;28;21024;-84
2022/03/16 13:14:44;;;;;;;0.47;0.47;;;9.80;99.90;;;;;;5069444;28;20580;-85
2022/03/16 13:17:13;;;;;;;0.70;0.70;;;9.90;99.90;;;;;;5068210;28;21005;-84
2022/03/16 13:19:44;;;;;;;0.50;0.50;;;10.00;99.90;;;;;;5067321;28;20528;-84
2022/03/16 13:22:12;;;;;;;0.43;0.43;;;10.00;99.90;;;;;;5069833;28;20620;-84